Wetterdaten: Woche 13.06.16 - 19.06.16 (KW24)
Datum Zeit Temp. A. Temp. A. max Feuchte A. Luftdruck Regen Wind Richtung Sonnenschein ET UV Solar Taupunkt Windben
13.06.2016 00:00 12,9 C 12,7 C 77 % 1011,2 hPa 0,0 mm 0,5 km/h (0 Bft) W 0,00 h 0,000 mm 0,0 UV-I 0 W/m 8,9 C 1,2 km/h (1 Bft)
13.06.2016 01:00 12,4 C 12,5 C 78 % 1010,7 hPa 0,0 mm 0,0 km/h (0 Bft) N 0,00 h 0,000 mm 0,0 UV-I 0 W/m 8,6 C 0,0 km/h (0 Bft)
13.06.2016 02:00 12,3 C 12,2 C 79 % 1010,4 hPa 0,0 mm 0,9 km/h (0 Bft) W 0,00 h 0,000 mm 0,0 UV-I 0 W/m 8,8 C 4,3 km/h (1 Bft)
13.06.2016 03:00 11,6 C 11,4 C 82 % 1010,1 hPa 1,4 mm 1,0 km/h (0 Bft) S-SW 0,00 h 0,000 mm 0,0 UV-I 0 W/m 8,8 C 2,3 km/h (1 Bft)
13.06.2016 04:00 11,2 C 11,0 C 85 % 1009,7 hPa 0,0 mm 1,0 km/h (0 Bft) S 0,00 h 0,000 mm 0,0 UV-I 0 W/m 8,7 C 1,7 km/h (1 Bft)
13.06.2016 05:00 10,5 C 10,4 C 87 % 1009,2 hPa 0,0 mm 0,6 km/h (0 Bft) SO 0,00 h 0,000 mm 0,0 UV-I 0 W/m 8,4 C 0,4 km/h (0 Bft)
13.06.2016 06:00 10,9 C 10,9 C 88 % 1008,9 hPa 0,0 mm 0,0 km/h (0 Bft) N 0,00 h 0,000 mm 0,0 UV-I 0 W/m 9,0 C 0,0 km/h (0 Bft)
13.06.2016 07:00 12,2 C 12,4 C 87 % 1008,6 hPa 0,0 mm 0,0 km/h (0 Bft) N 0,00 h 0,000 mm 0,0 UV-I 0 W/m 10,2 C 0,0 km/h (0 Bft)
13.06.2016 08:00 14,6 C 16,8 C 80 % 1008,6 hPa 0,0 mm 0,8 km/h (0 Bft) O-NO 0,00 h 0,000 mm 0,0 UV-I 0 W/m 11,3 C 0,0 km/h (0 Bft)
13.06.2016 09:00 14,3 C 15,1 C 76 % 1008,9 hPa 0,0 mm 5,4 km/h (1 Bft) W-SW 0,00 h 0,000 mm 0,0 UV-I 0 W/m 10,1 C 10,5 km/h (2 Bft)
13.06.2016 10:00 14,9 C 16,1 C 76 % 1008,8 hPa 0,0 mm 7,8 km/h (2 Bft) W-SW 0,00 h 0,000 mm 0,0 UV-I 0 W/m 10,6 C 12,5 km/h (3 Bft)
13.06.2016 11:00 16,0 C 17,5 C 70 % 1008,4 hPa 0,0 mm 9,9 km/h (2 Bft) W-SW 0,00 h 0,000 mm 0,0 UV-I 0 W/m 10,4 C 10,5 km/h (2 Bft)
13.06.2016 12:00 17,0 C 19,1 C 68 % 1008,1 hPa 0,0 mm 7,4 km/h (2 Bft) W 0,00 h 0,000 mm 0,0 UV-I 0 W/m 11,0 C 10,9 km/h (2 Bft)
13.06.2016 13:00 18,4 C 20,2 C 63 % 1007,6 hPa 0,0 mm 7,8 km/h (2 Bft) W 0,00 h 0,000 mm 0,0 UV-I 0 W/m 11,1 C 10,3 km/h (2 Bft)
13.06.2016 14:00 19,6 C 22,3 C 57 % 1007,3 hPa 0,0 mm 10,5 km/h (2 Bft) W 0,00 h 0,000 mm 0,0 UV-I 0 W/m 10,8 C 15,0 km/h (3 Bft)
13.06.2016 15:00 18,7 C 20,8 C 57 % 1006,9 hPa 0,0 mm 12,5 km/h (3 Bft) W 0,00 h 0,000 mm 0,0 UV-I 0 W/m 10,0 C 24,4 km/h (4 Bft)
13.06.2016 16:00 18,3 C 20,2 C 57 % 1006,7 hPa 0,0 mm 12,0 km/h (2 Bft) W 0,00 h 0,000 mm 0,0 UV-I 0 W/m 9,7 C 16,6 km/h (3 Bft)
13.06.2016 17:00 16,3 C 16,8 C 62 % 1006,7 hPa 0,0 mm 13,0 km/h (3 Bft) W-SW 0,00 h 0,000 mm 0,0 UV-I 0 W/m 8,9 C 19,8 km/h (4 Bft)
13.06.2016 18:00 15,3 C 15,2 C 72 % 1006,3 hPa 0,7 mm 3,8 km/h (1 Bft) W 0,00 h 0,000 mm 0,0 UV-I 0 W/m 10,3 C 5,4 km/h (1 Bft)
13.06.2016 19:00 15,1 C 15,6 C 71 % 1006,2 hPa 0,0 mm 3,2 km/h (1 Bft) S 0,00 h 0,000 mm 0,0 UV-I 0 W/m 9,8 C 4,1 km/h (1 Bft)
13.06.2016 20:00 14,2 C 14,2 C 73 % 1006,2 hPa 0,0 mm 1,0 km/h (0 Bft) S-SW 0,00 h 0,000 mm 0,0 UV-I 0 W/m 9,4 C 2,1 km/h (1 Bft)
13.06.2016 21:00 13,2 C 13,1 C 76 % 1006,3 hPa 4,1 mm 1,6 km/h (1 Bft) N-NO 0,00 h 0,000 mm 0,0 UV-I 0 W/m 9,1 C 1,8 km/h (1 Bft)
13.06.2016 22:00 11,5 C 11,4 C 83 % 1006,7 hPa 2,1 mm 0,1 km/h (0 Bft) N 0,00 h 0,000 mm 0,0 UV-I 0 W/m 8,8 C 0,0 km/h (0 Bft)
13.06.2016 23:00 11,0 C 10,9 C 86 % 1006,6 hPa 1,4 mm 1,1 km/h (1 Bft) W-SW 0,00 h 0,000 mm 0,0 UV-I 0 W/m 8,7 C 1,3 km/h (1 Bft)
14.06.2016 00:00 10,6 C 10,5 C 87 % 1006,5 hPa 0,7 mm 0,0 km/h (0 Bft) N 0,00 h 0,000 mm 0,0 UV-I 0 W/m 8,5 C 0,0 km/h (0 Bft)
14.06.2016 01:00 10,3 C 10,2 C 87 % 1006,6 hPa 2,1 mm 0,1 km/h (0 Bft) N 0,00 h 0,000 mm 0,0 UV-I 0 W/m 8,3 C 0,0 km/h (0 Bft)
14.06.2016 02:00 10,2 C 10,0 C 88 % 1006,5 hPa 0,0 mm 0,0 km/h (0 Bft) N 0,00 h 0,000 mm 0,0 UV-I 0 W/m 8,3 C 0,0 km/h (0 Bft)
14.06.2016 03:00 10,1 C 9,9 C 88 % 1006,2 hPa 0,0 mm 0,1 km/h (0 Bft) N 0,00 h 0,000 mm 0,0 UV-I 0 W/m 8,2 C 0,7 km/h (0 Bft)
14.06.2016 04:00 9,9 C 9,7 C 89 % 1005,9 hPa 0,0 mm 0,2 km/h (0 Bft) N 0,00 h 0,000 mm 0,0 UV-I 0 W/m 8,1 C 0,4 km/h (0 Bft)
14.06.2016 05:00 9,9 C 9,7 C 89 % 1005,9 hPa 0,0 mm 0,1 km/h (0 Bft) N 0,00 h 0,000 mm 0,0 UV-I 0 W/m 8,1 C 0,0 km/h (0 Bft)
14.06.2016 06:00 10,3 C 10,3 C 89 % 1005,7 hPa 0,0 mm 0,0 km/h (0 Bft) N 0,00 h 0,000 mm 0,0 UV-I 0 W/m 8,6 C 0,0 km/h (0 Bft)
14.06.2016 07:00 11,9 C 12,9 C 88 % 1005,7 hPa 0,0 mm 0,4 km/h (0 Bft) W 0,00 h 0,000 mm 0,0 UV-I 0 W/m 10,0 C 2,7 km/h (1 Bft)
14.06.2016 08:00 14,2 C 17,0 C 81 % 1005,9 hPa 0,0 mm 4,1 km/h (1 Bft) W 0,00 h 0,000 mm 0,0 UV-I 0 W/m 11,1 C 6,9 km/h (2 Bft)
14.06.2016 09:00 15,0 C 17,4 C 76 % 1006,1 hPa 0,0 mm 6,8 km/h (2 Bft) W 0,00 h 0,000 mm 0,0 UV-I 0 W/m 10,7 C 8,2 km/h (2 Bft)
14.06.2016 10:00 17,0 C 20,5 C 67 % 1006,4 hPa 0,0 mm 6,1 km/h (2 Bft) NW 0,00 h 0,000 mm 0,0 UV-I 0 W/m 10,8 C 10,3 km/h (2 Bft)
14.06.2016 11:00 19,1 C 22,7 C 59 % 1006,7 hPa 0,0 mm 7,2 km/h (2 Bft) NW 0,00 h 0,000 mm 0,0 UV-I 0 W/m 10,8 C 9,9 km/h (2 Bft)
14.06.2016 12:00 19,7 C 22,8 C 56 % 1006,4 hPa 0,0 mm 8,0 km/h (2 Bft) NW 0,00 h 0,000 mm 0,0 UV-I 0 W/m 10,7 C 12,6 km/h (3 Bft)
14.06.2016 13:00 17,3 C 18,4 C 62 % 1005,6 hPa 0,0 mm 3,8 km/h (1 Bft) W-SW 0,00 h 0,000 mm 0,0 UV-I 0 W/m 9,9 C 3,9 km/h (1 Bft)
14.06.2016 14:00 16,1 C 16,1 C 74 % 1004,9 hPa 2,1 mm 0,1 km/h (0 Bft) W 0,00 h 0,000 mm 0,0 UV-I 0 W/m 11,4 C 0,3 km/h (0 Bft)
14.06.2016 15:00 15,7 C 15,6 C 76 % 1004,7 hPa 0,7 mm 3,4 km/h (1 Bft) W 0,00 h 0,000 mm 0,0 UV-I 0 W/m 11,5 C 5,1 km/h (1 Bft)
14.06.2016 16:00 15,0 C 15,0 C 76 % 1005,1 hPa 0,0 mm 4,5 km/h (1 Bft) NW 0,00 h 0,000 mm 0,0 UV-I 0 W/m 10,8 C 6,7 km/h (2 Bft)
14.06.2016 17:00 15,3 C 16,1 C 75 % 1004,7 hPa 0,0 mm 3,5 km/h (1 Bft) S 0,00 h 0,000 mm 0,0 UV-I 0 W/m 10,9 C 4,2 km/h (1 Bft)
14.06.2016 18:00 16,1 C 17,6 C 72 % 1004,6 hPa 0,0 mm 1,7 km/h (1 Bft) S 0,00 h 0,000 mm 0,0 UV-I 0 W/m 11,0 C 2,1 km/h (1 Bft)
14.06.2016 19:00 13,9 C 13,8 C 74 % 1004,9 hPa 0,7 mm 3,0 km/h (1 Bft) S 0,00 h 0,000 mm 0,0 UV-I 0 W/m 9,4 C 4,8 km/h (1 Bft)
14.06.2016 20:00 12,2 C 11,8 C 79 % 1004,9 hPa 0,0 mm 7,3 km/h (2 Bft) S 0,00 h 0,000 mm 0,0 UV-I 0 W/m 8,6 C 12,3 km/h (3 Bft)
14.06.2016 21:00 11,8 C 11,7 C 78 % 1005,0 hPa 0,0 mm 4,7 km/h (1 Bft) W-SW 0,00 h 0,000 mm 0,0 UV-I 0 W/m 8,1 C 6,7 km/h (2 Bft)
14.06.2016 22:00 11,3 C 11,1 C 78 % 1005,4 hPa 0,0 mm 2,1 km/h (1 Bft) S 0,00 h 0,000 mm 0,0 UV-I 0 W/m 7,7 C 2,5 km/h (1 Bft)
14.06.2016 23:00 10,8 C 10,5 C 81 % 1005,4 hPa 0,0 mm 1,9 km/h (1 Bft) S 0,00 h 0,000 mm 0,0 UV-I 0 W/m 7,7 C 4,2 km/h (1 Bft)
15.06.2016 00:00 10,3 C 9,8 C 80 % 1005,2 hPa 0,0 mm 6,3 km/h (2 Bft) SW 0,00 h 0,000 mm 0,0 UV-I 0 W/m 7,0 C 9,8 km/h (2 Bft)
15.06.2016 01:00 10,2 C 9,7 C 76 % 1005,0 hPa 0,7 mm 7,9 km/h (2 Bft) SW 0,00 h 0,000 mm 0,0 UV-I 0 W/m 6,2 C 13,4 km/h (3 Bft)
15.06.2016 02:00 9,3 C 8,9 C 80 % 1005,2 hPa 0,7 mm 2,2 km/h (1 Bft) S-SO 0,00 h 0,000 mm 0,0 UV-I 0 W/m 6,0 C 2,7 km/h (1 Bft)
15.06.2016 03:00 8,9 C 8,6 C 84 % 1004,9 hPa 0,0 mm 0,1 km/h (0 Bft) N 0,00 h 0,000 mm 0,0 UV-I 0 W/m 6,4 C 0,0 km/h (0 Bft)
15.06.2016 04:00 8,7 C 8,5 C 86 % 1004,6 hPa 0,0 mm 0,0 km/h (0 Bft) N 0,00 h 0,000 mm 0,0 UV-I 0 W/m 6,5 C 0,0 km/h (0 Bft)
15.06.2016 05:00 8,6 C 8,3 C 87 % 1004,3 hPa 0,0 mm 0,0 km/h (0 Bft) N 0,00 h 0,000 mm 0,0 UV-I 0 W/m 6,5 C 0,0 km/h (0 Bft)
15.06.2016 06:00 9,0 C 8,7 C 87 % 1004,1 hPa 0,0 mm 0,0 km/h (0 Bft) N 0,00 h 0,000 mm 0,0 UV-I 0 W/m 6,9 C 0,0 km/h (0 Bft)
15.06.2016 07:00 11,8 C 15,0 C 83 % 1004,2 hPa 0,0 mm 0,1 km/h (0 Bft) N 0,00 h 0,000 mm 0,0 UV-I 0 W/m 9,0 C 0,0 km/h (0 Bft)
15.06.2016 08:00 16,3 C 23,9 C 66 % 1004,4 hPa 0,0 mm 0,0 km/h (0 Bft) N 0,00 h 0,000 mm 0,0 UV-I 0 W/m 9,8 C 0,0 km/h (0 Bft)
15.06.2016 09:00 17,4 C 23,1 C 55 % 1005,5 hPa 0,0 mm 0,3 km/h (0 Bft) NW 0,00 h 0,000 mm 0,0 UV-I 0 W/m 8,2 C 0,3 km/h (0 Bft)
15.06.2016 10:00 19,5 C 24,7 C 46 % 1005,9 hPa 0,0 mm 1,8 km/h (1 Bft) NO 0,00 h 0,000 mm 0,0 UV-I 0 W/m 7,4 C 1,0 km/h (0 Bft)
15.06.2016 11:00 20,3 C 25,1 C 41 % 1005,9 hPa 0,0 mm 2,8 km/h (1 Bft) N-NO 0,00 h 0,000 mm 0,0 UV-I 0 W/m 6,7 C 4,9 km/h (1 Bft)
15.06.2016 12:00 19,5 C 22,7 C 43 % 1006,0 hPa 0,0 mm 2,8 km/h (1 Bft) NW 0,00 h 0,000 mm 0,0 UV-I 0 W/m 6,6 C 6,1 km/h (2 Bft)
15.06.2016 13:00 18,8 C 20,5 C 51 % 1005,9 hPa 0,0 mm 11,7 km/h (2 Bft) W 0,00 h 0,000 mm 0,0 UV-I 0 W/m 8,3 C 17,3 km/h (3 Bft)
15.06.2016 14:00 18,4 C 20,1 C 52 % 1006,1 hPa 0,0 mm 10,1 km/h (2 Bft) NW 0,00 h 0,000 mm 0,0 UV-I 0 W/m 8,3 C 12,4 km/h (3 Bft)
15.06.2016 15:00 19,3 C 22,0 C 51 % 1005,9 hPa 0,0 mm 7,3 km/h (2 Bft) NW 0,00 h 0,000 mm 0,0 UV-I 0 W/m 8,9 C 7,7 km/h (2 Bft)
15.06.2016 16:00 18,5 C 21,3 C 50 % 1005,7 hPa 0,0 mm 8,2 km/h (2 Bft) W 0,00 h 0,000 mm 0,0 UV-I 0 W/m 7,9 C 11,6 km/h (2 Bft)
15.06.2016 17:00 15,3 C 15,0 C 64 % 1006,0 hPa 1,4 mm 1,8 km/h (1 Bft) S 0,00 h 0,000 mm 0,0 UV-I 0 W/m 8,4 C 2,5 km/h (1 Bft)
15.06.2016 18:00 15,2 C 15,1 C 71 % 1006,2 hPa 0,0 mm 0,3 km/h (0 Bft) N 0,00 h 0,000 mm 0,0 UV-I 0 W/m 10,0 C 0,0 km/h (0 Bft)
15.06.2016 19:00 13,7 C 13,7 C 75 % 1006,7 hPa 0,7 mm 0,9 km/h (0 Bft) S 0,00 h 0,000 mm 0,0 UV-I 0 W/m 9,3 C 2,3 km/h (1 Bft)
15.06.2016 20:00 12,1 C 11,9 C 82 % 1007,3 hPa 2,1 mm 0,1 km/h (0 Bft) N 0,00 h 0,000 mm 0,0 UV-I 0 W/m 9,0 C 0,0 km/h (0 Bft)
15.06.2016 21:00 11,7 C 11,5 C 86 % 1007,2 hPa 0,0 mm 0,8 km/h (0 Bft) NO 0,00 h 0,000 mm 0,0 UV-I 0 W/m 9,5 C 1,2 km/h (1 Bft)
15.06.2016 22:00 10,9 C 10,7 C 86 % 1007,2 hPa 0,0 mm 0,0 km/h (0 Bft) N 0,00 h 0,000 mm 0,0 UV-I 0 W/m 8,7 C 0,0 km/h (0 Bft)
15.06.2016 23:00 10,5 C 10,3 C 87 % 1007,1 hPa 0,0 mm 0,0 km/h (0 Bft) N 0,00 h 0,000 mm 0,0 UV-I 0 W/m 8,5 C 0,0 km/h (0 Bft)
16.06.2016 00:00 10,7 C 10,5 C 88 % 1007,1 hPa 0,0 mm 0,0 km/h (0 Bft) N 0,00 h 0,000 mm 0,0 UV-I 0 W/m 8,8 C 0,0 km/h (0 Bft)
16.06.2016 01:00 10,4 C 10,2 C 88 % 1006,7 hPa 0,0 mm 0,1 km/h (0 Bft) N 0,00 h 0,000 mm 0,0 UV-I 0 W/m 8,5 C 0,5 km/h (0 Bft)
16.06.2016 02:00 10,3 C 10,1 C 88 % 1006,1 hPa 0,0 mm 0,0 km/h (0 Bft) N 0,00 h 0,000 mm 0,0 UV-I 0 W/m 8,4 C 0,0 km/h (0 Bft)
16.06.2016 03:00 10,3 C 10,1 C 88 % 1005,7 hPa 0,7 mm 0,0 km/h (0 Bft) N 0,00 h 0,000 mm 0,0 UV-I 0 W/m 8,4 C 0,0 km/h (0 Bft)
16.06.2016 04:00 10,2 C 10,0 C 89 % 1005,1 hPa 0,0 mm 0,1 km/h (0 Bft) N 0,00 h 0,000 mm 0,0 UV-I 0 W/m 8,4 C 0,0 km/h (0 Bft)
16.06.2016 05:00 10,0 C 9,8 C 89 % 1004,8 hPa 0,0 mm 0,0 km/h (0 Bft) N 0,00 h 0,000 mm 0,0 UV-I 0 W/m 8,2 C 0,0 km/h (0 Bft)
16.06.2016 06:00 10,6 C 10,7 C 89 % 1004,5 hPa 0,0 mm 0,0 km/h (0 Bft) N 0,00 h 0,000 mm 0,0 UV-I 0 W/m 8,9 C 0,0 km/h (0 Bft)
16.06.2016 07:00 15,2 C 21,9 C 82 % 1004,2 hPa 0,0 mm 0,2 km/h (0 Bft) NO 0,00 h 0,000 mm 0,0 UV-I 0 W/m 12,2 C 0,8 km/h (0 Bft)
16.06.2016 08:00 15,7 C 20,8 C 72 % 1003,9 hPa 0,0 mm 6,3 km/h (2 Bft) N-NO 0,00 h 0,000 mm 0,0 UV-I 0 W/m 10,6 C 9,8 km/h (2 Bft)
16.06.2016 09:00 16,2 C 19,6 C 71 % 1003,7 hPa 0,0 mm 7,6 km/h (2 Bft) NO 0,00 h 0,000 mm 0,0 UV-I 0 W/m 10,9 C 12,5 km/h (3 Bft)
16.06.2016 10:00 18,9 C 22,6 C 67 % 1003,3 hPa 0,0 mm 9,2 km/h (2 Bft) O-NO 0,00 h 0,000 mm 0,0 UV-I 0 W/m 12,6 C 11,6 km/h (2 Bft)
16.06.2016 11:00 21,9 C 25,1 C 57 % 1004,5 hPa 0,0 mm 11,2 km/h (2 Bft) W 0,00 h 0,000 mm 0,0 UV-I 0 W/m 13,0 C 19,7 km/h (3 Bft)
16.06.2016 12:00 21,8 C 24,2 C 54 % 1005,5 hPa 0,0 mm 15,4 km/h (3 Bft) W 0,00 h 0,000 mm 0,0 UV-I 0 W/m 12,1 C 22,6 km/h (4 Bft)
16.06.2016 13:00 19,6 C 21,5 C 59 % 1006,2 hPa 0,0 mm 13,1 km/h (3 Bft) W 0,00 h 0,000 mm 0,0 UV-I 0 W/m 11,4 C 14,5 km/h (3 Bft)
16.06.2016 14:00 18,0 C 19,6 C 62 % 1006,7 hPa 0,0 mm 10,4 km/h (2 Bft) W 0,00 h 0,000 mm 0,0 UV-I 0 W/m 10,6 C 11,5 km/h (2 Bft)
16.06.2016 15:00 15,7 C 15,6 C 69 % 1006,7 hPa 0,0 mm 9,0 km/h (2 Bft) W 0,00 h 0,000 mm 0,0 UV-I 0 W/m 10,0 C 11,2 km/h (2 Bft)
16.06.2016 16:00 14,2 C 14,1 C 76 % 1006,7 hPa 0,0 mm 4,1 km/h (1 Bft) W-SW 0,00 h 0,000 mm 0,0 UV-I 0 W/m 10,0 C 5,4 km/h (1 Bft)
16.06.2016 17:00 13,8 C 13,7 C 76 % 1006,4 hPa 0,0 mm 1,9 km/h (1 Bft) W-SW 0,00 h 0,000 mm 0,0 UV-I 0 W/m 9,6 C 1,4 km/h (1 Bft)
16.06.2016 18:00 12,3 C 12,0 C 79 % 1006,7 hPa 0,7 mm 1,9 km/h (1 Bft) SW 0,00 h 0,000 mm 0,0 UV-I 0 W/m 8,7 C 2,6 km/h (1 Bft)
16.06.2016 19:00 11,4 C 11,1 C 82 % 1006,9 hPa 2,1 mm 2,5 km/h (1 Bft) S-SW 0,00 h 0,000 mm 0,0 UV-I 0 W/m 8,4 C 3,2 km/h (1 Bft)
16.06.2016 20:00 10,7 C 10,5 C 84 % 1007,1 hPa 2,7 mm 0,9 km/h (0 Bft) S-SO 0,00 h 0,000 mm 0,0 UV-I 0 W/m 8,1 C 0,7 km/h (0 Bft)
16.06.2016 21:00 10,4 C 10,2 C 86 % 1006,9 hPa 1,4 mm 0,0 km/h (0 Bft) N 0,00 h 0,000 mm 0,0 UV-I 0 W/m 8,2 C 0,0 km/h (0 Bft)
16.06.2016 22:00 10,2 C 10,0 C 87 % 1006,6 hPa 1,4 mm 0,4 km/h (0 Bft) O-SO 0,00 h 0,000 mm 0,0 UV-I 0 W/m 8,1 C 0,6 km/h (0 Bft)
16.06.2016 23:00 10,0 C 9,8 C 88 % 1006,3 hPa 0,7 mm 0,0 km/h (0 Bft) N 0,00 h 0,000 mm 0,0 UV-I 0 W/m 8,1 C 0,0 km/h (0 Bft)
17.06.2016 00:00 9,7 C 9,5 C 88 % 1006,0 hPa 0,0 mm 0,0 km/h (0 Bft) N 0,00 h 0,000 mm 0,0 UV-I 0 W/m 7,8 C 0,0 km/h (0 Bft)
17.06.2016 01:00 9,4 C 9,2 C 88 % 1005,7 hPa 0,7 mm 1,0 km/h (0 Bft) SW 0,00 h 0,000 mm 0,0 UV-I 0 W/m 7,5 C 4,1 km/h (1 Bft)
17.06.2016 02:00 8,8 C 8,6 C 88 % 1006,0 hPa 2,1 mm 2,8 km/h (1 Bft) SW 0,00 h 0,000 mm 0,0 UV-I 0 W/m 6,9 C 4,0 km/h (1 Bft)
17.06.2016 03:00 8,2 C 8,0 C 88 % 1006,4 hPa 2,7 mm 3,4 km/h (1 Bft) SW 0,00 h 0,000 mm 0,0 UV-I 0 W/m 6,3 C 6,7 km/h (2 Bft)
17.06.2016 04:00 7,6 C 7,4 C 88 % 1006,9 hPa 1,4 mm 3,3 km/h (1 Bft) SW 0,00 h 0,000 mm 0,0 UV-I 0 W/m 5,7 C 4,9 km/h (1 Bft)
17.06.2016 05:00 7,3 C 7,1 C 88 % 1007,3 hPa 0,7 mm 1,8 km/h (1 Bft) S 0,00 h 0,000 mm 0,0 UV-I 0 W/m 5,4 C 3,8 km/h (1 Bft)
17.06.2016 06:00 7,5 C 7,3 C 88 % 1007,9 hPa 0,7 mm 0,9 km/h (0 Bft) S 0,00 h 0,000 mm 0,0 UV-I 0 W/m 5,6 C 0,9 km/h (0 Bft)
17.06.2016 07:00 8,3 C 8,1 C 88 % 1008,3 hPa 0,0 mm 0,8 km/h (0 Bft) N-NO 0,00 h 0,000 mm 0,0 UV-I 0 W/m 6,4 C 1,1 km/h (0 Bft)
17.06.2016 08:00 10,1 C 10,2 C 87 % 1009,1 hPa 0,0 mm 0,7 km/h (0 Bft) W-SW 0,00 h 0,000 mm 0,0 UV-I 0 W/m 8,0 C 3,0 km/h (1 Bft)
17.06.2016 09:00 11,8 C 12,7 C 81 % 1010,1 hPa 0,0 mm 2,1 km/h (1 Bft) NW 0,00 h 0,000 mm 0,0 UV-I 0 W/m 8,8 C 3,4 km/h (1 Bft)
17.06.2016 10:00 14,1 C 16,9 C 72 % 1011,1 hPa 0,0 mm 6,1 km/h (2 Bft) W-SW 0,00 h 0,000 mm 0,0 UV-I 0 W/m 9,0 C 10,6 km/h (2 Bft)
17.06.2016 11:00 15,8 C 18,3 C 62 % 1012,2 hPa 0,0 mm 8,1 km/h (2 Bft) W 0,00 h 0,000 mm 0,0 UV-I 0 W/m 8,4 C 13,1 km/h (3 Bft)
17.06.2016 12:00 18,8 C 21,6 C 49 % 1013,1 hPa 0,0 mm 11,8 km/h (2 Bft) W-SW 0,00 h 0,000 mm 0,0 UV-I 0 W/m 7,7 C 18,8 km/h (3 Bft)
17.06.2016 13:00 19,9 C 22,2 C 44 % 1013,6 hPa 0,0 mm 13,8 km/h (3 Bft) W-NW 0,00 h 0,000 mm 0,0 UV-I 0 W/m 7,1 C 21,7 km/h (4 Bft)
17.06.2016 14:00 20,2 C 22,2 C 43 % 1013,6 hPa 0,0 mm 13,8 km/h (3 Bft) W-NW 0,00 h 0,000 mm 0,0 UV-I 0 W/m 7,3 C 18,9 km/h (3 Bft)
17.06.2016 15:00 20,1 C 22,4 C 43 % 1013,5 hPa 0,0 mm 14,3 km/h (3 Bft) W-SW 0,00 h 0,000 mm 0,0 UV-I 0 W/m 7,2 C 18,3 km/h (3 Bft)
17.06.2016 16:00 18,3 C 21,0 C 47 % 1013,8 hPa 0,0 mm 16,6 km/h (3 Bft) W 0,00 h 0,000 mm 0,0 UV-I 0 W/m 7,0 C 26,6 km/h (4 Bft)
17.06.2016 17:00 17,7 C 18,8 C 49 % 1014,3 hPa 0,0 mm 12,3 km/h (3 Bft) W 0,00 h 0,000 mm 0,0 UV-I 0 W/m 6,8 C 15,1 km/h (3 Bft)
17.06.2016 18:00 17,0 C 17,7 C 52 % 1014,4 hPa 0,0 mm 8,6 km/h (2 Bft) W-NW 0,00 h 0,000 mm 0,0 UV-I 0 W/m 7,1 C 11,3 km/h (2 Bft)
17.06.2016 19:00 16,4 C 17,2 C 56 % 1015,1 hPa 0,0 mm 9,5 km/h (2 Bft) W-SW 0,00 h 0,000 mm 0,0 UV-I 0 W/m 7,6 C 13,0 km/h (3 Bft)
17.06.2016 20:00 16,0 C 18,2 C 57 % 1015,6 hPa 0,0 mm 5,5 km/h (1 Bft) W 0,00 h 0,000 mm 0,0 UV-I 0 W/m 7,6 C 5,7 km/h (1 Bft)
17.06.2016 21:00 13,6 C 13,9 C 63 % 1016,2 hPa 0,0 mm 0,7 km/h (0 Bft) SW 0,00 h 0,000 mm 0,0 UV-I 0 W/m 6,6 C 0,7 km/h (0 Bft)
17.06.2016 22:00 12,7 C 12,6 C 67 % 1016,7 hPa 0,0 mm 0,1 km/h (0 Bft) N 0,00 h 0,000 mm 0,0 UV-I 0 W/m 6,8 C 0,3 km/h (0 Bft)
17.06.2016 23:00 10,6 C 10,4 C 74 % 1016,6 hPa 0,0 mm 0,0 km/h (0 Bft) N 0,00 h 0,000 mm 0,0 UV-I 0 W/m 6,1 C 0,0 km/h (0 Bft)
18.06.2016 00:00 9,5 C 9,1 C 79 % 1017,0 hPa 0,0 mm 0,0 km/h (0 Bft) N 0,00 h 0,000 mm 0,0 UV-I 0 W/m 6,0 C 0,0 km/h (0 Bft)
18.06.2016 01:00 9,4 C 9,0 C 81 % 1017,2 hPa 0,0 mm 0,0 km/h (0 Bft) N 0,00 h 0,000 mm 0,0 UV-I 0 W/m 6,3 C 0,0 km/h (0 Bft)
18.06.2016 02:00 10,2 C 10,0 C 82 % 1017,6 hPa 0,0 mm 1,3 km/h (1 Bft) S 0,00 h 0,000 mm 0,0 UV-I 0 W/m 7,2 C 2,4 km/h (1 Bft)
18.06.2016 03:00 9,5 C 9,5 C 82 % 1017,1 hPa 0,0 mm 0,5 km/h (0 Bft) W-SW 0,00 h 0,000 mm 0,0 UV-I 0 W/m 6,5 C 0,8 km/h (0 Bft)
18.06.2016 04:00 8,8 C 8,8 C 91 % 1016,2 hPa 0,0 mm 1,6 km/h (1 Bft) S-SW 0,00 h 0,000 mm 0,0 UV-I 0 W/m 7,3 C 4,9 km/h (1 Bft)
18.06.2016 05:00 9,9 C 10,0 C 88 % 1016,4 hPa 0,0 mm 1,8 km/h (1 Bft) NW 0,00 h 0,000 mm 0,0 UV-I 10 W/m 8,1 C 6,2 km/h (2 Bft)
18.06.2016 06:00 10,5 C 10,5 C 88 % 1016,6 hPa 0,0 mm 1,4 km/h (1 Bft) NW 0,00 h 0,000 mm 0,0 UV-I 41 W/m 8,5 C 5,7 km/h (1 Bft)
18.06.2016 07:00 11,4 C 11,5 C 86 % 1016,9 hPa 0,0 mm 3,2 km/h (1 Bft) O-SO 0,00 h 0,025 mm 0,5 UV-I 68 W/m 9,3 C 8,4 km/h (2 Bft)
18.06.2016 08:00 12,2 C 12,3 C 86 % 1017,1 hPa 0,0 mm 3,1 km/h (1 Bft) W 0,00 h 0,026 mm 0,9 UV-I 147 W/m 10,0 C 8,2 km/h (2 Bft)
18.06.2016 09:00 14,6 C 14,7 C 73 % 1017,3 hPa 0,0 mm 4,0 km/h (1 Bft) W-NW 0,17 h 0,076 mm 2,6 UV-I 415 W/m 9,7 C 9,0 km/h (2 Bft)
18.06.2016 10:00 15,8 C 16,0 C 62 % 1017,4 hPa 0,2 mm 8,9 km/h (2 Bft) NW 0,00 h 0,229 mm 1,8 UV-I 254 W/m 8,6 C 19,3 km/h (3 Bft)
18.06.2016 11:00 14,7 C 14,8 C 73 % 1017,7 hPa 0,0 mm 2,2 km/h (1 Bft) W-SW 0,00 h 0,152 mm 1,2 UV-I 155 W/m 10,0 C 6,2 km/h (2 Bft)
18.06.2016 12:00 14,3 C 14,4 C 75 % 1017,8 hPa 0,0 mm 4,2 km/h (1 Bft) S-SO 0,00 h 0,102 mm 2,8 UV-I 333 W/m 9,9 C 9,3 km/h (2 Bft)
18.06.2016 13:00 16,5 C 16,6 C 68 % 1017,0 hPa 0,0 mm 7,1 km/h (2 Bft) O-NO 0,72 h 0,177 mm 6,2 UV-I 842 W/m 10,6 C 12,3 km/h (3 Bft)
18.06.2016 14:00 16,9 C 16,9 C 60 % 1016,5 hPa 0,0 mm 4,7 km/h (1 Bft) O-NO 0,03 h 0,381 mm 3,0 UV-I 304 W/m 9,1 C 7,3 km/h (2 Bft)
18.06.2016 15:00 17,4 C 17,4 C 56 % 1016,1 hPa 0,0 mm 4,7 km/h (1 Bft) O-NO 0,32 h 0,204 mm 3,1 UV-I 424 W/m 8,6 C 7,7 km/h (2 Bft)
18.06.2016 16:00 16,4 C 16,4 C 66 % 1015,9 hPa 0,0 mm 2,1 km/h (1 Bft) O-NO 0,00 h 0,229 mm 0,9 UV-I 111 W/m 10,0 C 4,5 km/h (1 Bft)
18.06.2016 17:00 13,1 C 13,2 C 83 % 1016,5 hPa 8,4 mm 5,8 km/h (2 Bft) SO 0,00 h 0,075 mm 0,5 UV-I 41 W/m 10,2 C 9,9 km/h (2 Bft)
18.06.2016 18:00 11,8 C 11,8 C 92 % 1016,7 hPa 0,0 mm 2,4 km/h (1 Bft) SO 0,00 h 0,026 mm 0,5 UV-I 81 W/m 10,6 C 4,8 km/h (1 Bft)
18.06.2016 19:00 12,0 C 12,0 C 92 % 1017,1 hPa 0,2 mm 3,7 km/h (1 Bft) S 0,00 h 0,051 mm 0,0 UV-I 36 W/m 10,7 C 6,8 km/h (2 Bft)
18.06.2016 20:00 11,7 C 11,7 C 94 % 1018,0 hPa 3,6 mm 1,9 km/h (1 Bft) S-SO 0,00 h 0,025 mm 0,0 UV-I 20 W/m 10,7 C 3,3 km/h (1 Bft)
18.06.2016 21:00 11,0 C 11,0 C 94 % 1018,7 hPa 3,2 mm 1,3 km/h (1 Bft) S 0,00 h 0,000 mm 0,0 UV-I 0 W/m 10,1 C 2,3 km/h (1 Bft)
18.06.2016 22:00 10,6 C 10,6 C 96 % 1018,8 hPa 0,0 mm 0,6 km/h (0 Bft) W-SW 0,00 h 0,000 mm 0,0 UV-I 0 W/m 9,9 C 1,7 km/h (1 Bft)
18.06.2016 23:00 10,6 C 10,6 C 95 % 1018,8 hPa 0,0 mm 1,1 km/h (1 Bft) W-SW 0,00 h 0,000 mm 0,0 UV-I 0 W/m 9,9 C 2,4 km/h (1 Bft)
19.06.2016 00:00 10,5 C 10,6 C 95 % 1019,2 hPa 0,0 mm 1,7 km/h (1 Bft) S 0,00 h 0,000 mm 0,0 UV-I 0 W/m 9,8 C 3,1 km/h (1 Bft)
19.06.2016 01:00 10,3 C 10,3 C 96 % 1018,9 hPa 0,2 mm 0,6 km/h (0 Bft) S 0,00 h 0,000 mm 0,0 UV-I 0 W/m 9,6 C 1,5 km/h (1 Bft)
19.06.2016 02:00 10,1 C 10,2 C 96 % 1018,9 hPa 0,0 mm 0,5 km/h (0 Bft) SO 0,00 h 0,000 mm 0,0 UV-I 0 W/m 9,5 C 1,1 km/h (1 Bft)
19.06.2016 03:00 10,2 C 10,2 C 96 % 1018,7 hPa 0,0 mm 0,5 km/h (0 Bft) SW 0,00 h 0,000 mm 0,0 UV-I 0 W/m 9,5 C 1,2 km/h (1 Bft)
19.06.2016 04:00 10,2 C 10,2 C 94 % 1018,7 hPa 0,0 mm 2,4 km/h (1 Bft) S 0,00 h 0,000 mm 0,0 UV-I 0 W/m 9,4 C 4,2 km/h (1 Bft)
19.06.2016 05:00 10,1 C 10,1 C 93 % 1019,0 hPa 0,0 mm 2,5 km/h (1 Bft) SW 0,00 h 0,000 mm 0,0 UV-I 0 W/m 9,1 C 4,2 km/h (1 Bft)
19.06.2016 06:00 10,1 C 10,1 C 94 % 1019,2 hPa 0,2 mm 3,1 km/h (1 Bft) W-SW 0,00 h 0,000 mm 0,0 UV-I 16 W/m 9,2 C 5,8 km/h (2 Bft)
19.06.2016 07:00 10,2 C 10,2 C 94 % 1019,5 hPa 0,6 mm 2,5 km/h (1 Bft) W-SW 0,00 h 0,000 mm 0,0 UV-I 27 W/m 9,3 C 4,5 km/h (1 Bft)
19.06.2016 08:00 10,6 C 10,6 C 95 % 1019,9 hPa 1,0 mm 2,4 km/h (1 Bft) W-SW 0,00 h 0,025 mm 0,5 UV-I 71 W/m 9,8 C 4,1 km/h (1 Bft)
19.06.2016 09:00 10,9 C 10,9 C 94 % 1020,4 hPa 1,6 mm 2,3 km/h (1 Bft) W-SW 0,00 h 0,026 mm 0,6 UV-I 82 W/m 10,0 C 3,9 km/h (1 Bft)
19.06.2016 10:00 11,2 C 11,2 C 94 % 1020,7 hPa 1,6 mm 2,0 km/h (1 Bft) W 0,00 h 0,051 mm 1,0 UV-I 129 W/m 10,3 C 3,6 km/h (1 Bft)
19.06.2016 11:00 11,1 C 11,1 C 94 % 1021,0 hPa 3,8 mm 3,5 km/h (1 Bft) W 0,00 h 0,050 mm 1,1 UV-I 118 W/m 10,2 C 5,5 km/h (1 Bft)
19.06.2016 12:00 11,0 C 11,0 C 94 % 1021,4 hPa 2,8 mm 2,9 km/h (1 Bft) W-SW 0,00 h 0,051 mm 1,4 UV-I 168 W/m 10,1 C 4,5 km/h (1 Bft)
19.06.2016 13:00 11,4 C 11,5 C 91 % 1021,3 hPa 0,8 mm 1,0 km/h (0 Bft) W 0,00 h 0,076 mm 1,7 UV-I 209 W/m 10,0 C 2,0 km/h (1 Bft)
19.06.2016 14:00 11,9 C 11,9 C 90 % 1021,2 hPa 0,2 mm 1,0 km/h (0 Bft) N-NO 0,00 h 0,102 mm 1,6 UV-I 198 W/m 10,3 C 2,1 km/h (1 Bft)
19.06.2016 15:00 12,7 C 12,7 C 88 % 1021,4 hPa 0,2 mm 2,1 km/h (1 Bft) W 0,00 h 0,102 mm 2,3 UV-I 302 W/m 10,8 C 3,5 km/h (1 Bft)
19.06.2016 16:00 11,8 C 11,8 C 91 % 1021,6 hPa 0,4 mm 3,6 km/h (1 Bft) NW 0,00 h 0,152 mm 0,6 UV-I 56 W/m 10,3 C 5,5 km/h (1 Bft)
19.06.2016 17:00 11,4 C 11,4 C 92 % 1021,6 hPa 0,2 mm 0,5 km/h (0 Bft) W 0,00 h 0,025 mm 0,8 UV-I 128 W/m 10,2 C 1,5 km/h (1 Bft)
19.06.2016 18:00 11,9 C 11,9 C 93 % 1021,3 hPa 0,0 mm 1,3 km/h (1 Bft) SW 0,00 h 0,000 mm 0,6 UV-I 111 W/m 10,7 C 2,6 km/h (1 Bft)
19.06.2016 19:00 11,7 C 11,8 C 94 % 1021,5 hPa 0,0 mm 0,7 km/h (0 Bft) S-SW 0,00 h 0,000 mm 0,6 UV-I 72 W/m 10,8 C 1,7 km/h (1 Bft)
19.06.2016 20:00 11,4 C 11,4 C 95 % 1021,8 hPa 0,0 mm 0,7 km/h (0 Bft) S-SW 0,00 h 0,000 mm 0,0 UV-I 15 W/m 10,6 C 1,6 km/h (1 Bft)
19.06.2016 21:00 11,1 C 11,1 C 95 % 1022,5 hPa 0,0 mm 1,4 km/h (1 Bft) S 0,00 h 0,000 mm 0,0 UV-I 0 W/m 10,4 C 2,9 km/h (1 Bft)
19.06.2016 22:00 10,6 C 10,6 C 95 % 1022,8 hPa 0,0 mm 2,4 km/h (1 Bft) S 0,00 h 0,000 mm 0,0 UV-I 0 W/m 9,8 C 4,0 km/h (1 Bft)
19.06.2016 23:00 10,2 C 10,2 C 96 % 1022,7 hPa 0,0 mm 0,6 km/h (0 Bft) S-SW 0,00 h 0,000 mm 0,0 UV-I 0 W/m 9,6 C 1,6 km/h (1 Bft)
Min-Datum _ 17.06.16 17.06.16 15.06.16 16.06.16 - 19.06.16 - - - - - 15.06.16 19.06.16
_ Min-Zeit 05:35 05:35 11:45 10:00 - 23:00 - - - - - 11:55 23:00
Minimum _ 7,2 C 7,0 C 39 % 1003,2 hPa - 0,0 km/h (0 Bft) - - - - - 5,3 C 0,0 km/h (0 Bft)
Max-Datum _ 16.06.16 16.06.16 19.06.16 19.06.16 18.06.16 18.06.16 - 18.06.16 18.06.16 18.06.16 18.06.16 16.06.16 13.06.16
_ Max-Zeit 12:20 11:05 23:00 22:01 17:21 13:46 - 13:00 14:00 13:54 13:58 10:55 17:15
Maximum _ 22,5 C 27,0 C 96 % 1022,9 hPa 8,4 mm 23,8 km/h
O-NO (4 Bft)
- 0,08 h 0,381 mm 7,2 UV-I 1074 W/m 13,9 C 49,5 km/h
N (6 Bft)
Durchschnitt _ 13,2 C 13,8 C 78 % 1010,6 hPa #68,4 mm 3,4 km/h (1 Bft) W #1:14 h #2,438 mm 1,5 UV-I 30 W/m 9,0 C 5,4 km/h (1 Bft)